sensor_id;sensor_type;location;lat;lon;timestamp;P1;durP1;ratioP1;P2;durP2;ratioP2
19341;SDS011;9807;48.258;12.690;2023-04-03T00:02:21;9.17;;;7.10;;
19341;SDS011;9807;48.258;12.690;2023-04-03T00:04:47;8.27;;;6.57;;
19341;SDS011;9807;48.258;12.690;2023-04-03T00:07:13;8.67;;;6.43;;
19341;SDS011;9807;48.258;12.690;2023-04-03T00:09:39;9.97;;;6.20;;
19341;SDS011;9807;48.258;12.690;2023-04-03T00:12:05;8.90;;;6.27;;
19341;SDS011;9807;48.258;12.690;2023-04-03T00:14:33;10.13;;;6.63;;
19341;SDS011;9807;48.258;12.690;2023-04-03T00:17:02;8.27;;;6.37;;
19341;SDS011;9807;48.258;12.690;2023-04-03T00:19:28;9.53;;;6.63;;
19341;SDS011;9807;48.258;12.690;2023-04-03T00:21:54;7.93;;;6.33;;
19341;SDS011;9807;48.258;12.690;2023-04-03T00:24:20;8.60;;;6.77;;
19341;SDS011;9807;48.258;12.690;2023-04-03T00:26:46;8.37;;;6.37;;
19341;SDS011;9807;48.258;12.690;2023-04-03T00:29:11;8.23;;;6.33;;
19341;SDS011;9807;48.258;12.690;2023-04-03T00:31:37;10.23;;;7.10;;
19341;SDS011;9807;48.258;12.690;2023-04-03T00:34:03;9.80;;;6.67;;
19341;SDS011;9807;48.258;12.690;2023-04-03T00:36:29;8.83;;;6.43;;
19341;SDS011;9807;48.258;12.690;2023-04-03T00:38:54;9.00;;;6.67;;
19341;SDS011;9807;48.258;12.690;2023-04-03T00:41:20;8.30;;;6.40;;
19341;SDS011;9807;48.258;12.690;2023-04-03T00:43:46;8.83;;;6.67;;
19341;SDS011;9807;48.258;12.690;2023-04-03T00:46:12;8.40;;;6.43;;
19341;SDS011;9807;48.258;12.690;2023-04-03T00:48:39;9.93;;;6.50;;
19341;SDS011;9807;48.258;12.690;2023-04-03T00:51:09;9.60;;;6.40;;
19341;SDS011;9807;48.258;12.690;2023-04-03T00:53:57;8.87;;;6.23;;
19341;SDS011;9807;48.258;12.690;2023-04-03T00:56:26;8.93;;;6.47;;
19341;SDS011;9807;48.258;12.690;2023-04-03T00:59:00;12.33;;;6.97;;
19341;SDS011;9807;48.258;12.690;2023-04-03T01:01:35;9.50;;;6.57;;
19341;SDS011;9807;48.258;12.690;2023-04-03T01:04:02;9.60;;;7.40;;
19341;SDS011;9807;48.258;12.690;2023-04-03T01:06:31;10.30;;;6.77;;
19341;SDS011;9807;48.258;12.690;2023-04-03T01:09:00;10.00;;;7.00;;
19341;SDS011;9807;48.258;12.690;2023-04-03T01:11:27;9.17;;;6.73;;
19341;SDS011;9807;48.258;12.690;2023-04-03T01:13:52;9.17;;;6.50;;
19341;SDS011;9807;48.258;12.690;2023-04-03T01:16:18;8.40;;;6.37;;
19341;SDS011;9807;48.258;12.690;2023-04-03T01:18:44;11.30;;;6.97;;
19341;SDS011;9807;48.258;12.690;2023-04-03T01:23:59;10.23;;;6.60;;
19341;SDS011;9807;48.258;12.690;2023-04-03T01:26:35;8.87;;;6.60;;
19341;SDS011;9807;48.258;12.690;2023-04-03T01:29:01;9.80;;;6.43;;
19341;SDS011;9807;48.258;12.690;2023-04-03T01:31:27;10.47;;;6.67;;
19341;SDS011;9807;48.258;12.690;2023-04-03T01:34:01;9.13;;;6.40;;
19341;SDS011;9807;48.258;12.690;2023-04-03T01:36:28;8.30;;;6.10;;
19341;SDS011;9807;48.258;12.690;2023-04-03T01:38:56;11.83;;;7.33;;
19341;SDS011;9807;48.258;12.690;2023-04-03T01:41:23;10.07;;;6.00;;
19341;SDS011;9807;48.258;12.690;2023-04-03T01:43:48;9.17;;;6.27;;
19341;SDS011;9807;48.258;12.690;2023-04-03T01:46:15;9.63;;;6.77;;
19341;SDS011;9807;48.258;12.690;2023-04-03T01:48:41;8.50;;;6.53;;
19341;SDS011;9807;48.258;12.690;2023-04-03T01:51:07;8.80;;;6.60;;
19341;SDS011;9807;48.258;12.690;2023-04-03T01:53:33;8.90;;;6.83;;
19341;SDS011;9807;48.258;12.690;2023-04-03T01:56:02;8.23;;;6.10;;
19341;SDS011;9807;48.258;12.690;2023-04-03T01:58:28;8.93;;;6.13;;
19341;SDS011;9807;48.258;12.690;2023-04-03T02:00:54;9.00;;;6.37;;
19341;SDS011;9807;48.258;12.690;2023-04-03T02:03:20;11.73;;;6.47;;
19341;SDS011;9807;48.258;12.690;2023-04-03T02:05:46;9.40;;;6.10;;
19341;SDS011;9807;48.258;12.690;2023-04-03T02:08:11;10.17;;;6.27;;
19341;SDS011;9807;48.258;12.690;2023-04-03T02:10:38;11.30;;;5.93;;
19341;SDS011;9807;48.258;12.690;2023-04-03T02:13:03;9.70;;;5.97;;
19341;SDS011;9807;48.258;12.690;2023-04-03T02:15:30;9.10;;;6.40;;
19341;SDS011;9807;48.258;12.690;2023-04-03T02:17:55;8.10;;;6.10;;
19341;SDS011;9807;48.258;12.690;2023-04-03T02:20:21;9.00;;;6.53;;
19341;SDS011;9807;48.258;12.690;2023-04-03T02:22:47;9.80;;;6.50;;
19341;SDS011;9807;48.258;12.690;2023-04-03T02:25:13;10.90;;;6.33;;
19341;SDS011;9807;48.258;12.690;2023-04-03T02:27:39;8.90;;;6.10;;
19341;SDS011;9807;48.258;12.690;2023-04-03T02:30:05;8.37;;;5.90;;
19341;SDS011;9807;48.258;12.690;2023-04-03T02:32:32;9.63;;;5.80;;
19341;SDS011;9807;48.258;12.690;2023-04-03T02:34:57;8.77;;;6.17;;
19341;SDS011;9807;48.258;12.690;2023-04-03T02:37:23;8.23;;;6.07;;
19341;SDS011;9807;48.258;12.690;2023-04-03T02:39:49;11.80;;;6.00;;
19341;SDS011;9807;48.258;12.690;2023-04-03T02:42:15;8.63;;;5.97;;
19341;SDS011;9807;48.258;12.690;2023-04-03T02:44:41;7.80;;;6.03;;
19341;SDS011;9807;48.258;12.690;2023-04-03T02:47:07;8.33;;;6.13;;
19341;SDS011;9807;48.258;12.690;2023-04-03T02:49:32;8.33;;;6.10;;
19341;SDS011;9807;48.258;12.690;2023-04-03T02:51:58;10.83;;;6.33;;
19341;SDS011;9807;48.258;12.690;2023-04-03T02:54:24;10.13;;;6.47;;
19341;SDS011;9807;48.258;12.690;2023-04-03T02:56:52;10.00;;;6.37;;
19341;SDS011;9807;48.258;12.690;2023-04-03T02:59:18;9.40;;;6.23;;
19341;SDS011;9807;48.258;12.690;2023-04-03T03:01:45;8.20;;;5.77;;
19341;SDS011;9807;48.258;12.690;2023-04-03T03:04:11;7.20;;;5.63;;
19341;SDS011;9807;48.258;12.690;2023-04-03T03:06:36;11.20;;;5.90;;
19341;SDS011;9807;48.258;12.690;2023-04-03T03:09:02;7.63;;;5.30;;
19341;SDS011;9807;48.258;12.690;2023-04-03T03:11:28;8.13;;;5.77;;
19341;SDS011;9807;48.258;12.690;2023-04-03T03:13:54;8.40;;;6.63;;
19341;SDS011;9807;48.258;12.690;2023-04-03T03:16:20;9.03;;;5.70;;
19341;SDS011;9807;48.258;12.690;2023-04-03T03:18:46;8.53;;;5.43;;
19341;SDS011;9807;48.258;12.690;2023-04-03T03:21:12;7.80;;;5.30;;
19341;SDS011;9807;48.258;12.690;2023-04-03T03:23:38;9.83;;;5.90;;
19341;SDS011;9807;48.258;12.690;2023-04-03T03:26:04;8.10;;;5.90;;
19341;SDS011;9807;48.258;12.690;2023-04-03T03:28:32;6.57;;;5.23;;
19341;SDS011;9807;48.258;12.690;2023-04-03T03:30:58;7.53;;;5.50;;
19341;SDS011;9807;48.258;12.690;2023-04-03T03:33:24;7.23;;;5.57;;
19341;SDS011;9807;48.258;12.690;2023-04-03T03:35:51;8.57;;;5.43;;
19341;SDS011;9807;48.258;12.690;2023-04-03T03:38:17;11.07;;;5.53;;
19341;SDS011;9807;48.258;12.690;2023-04-03T03:40:43;8.20;;;5.70;;
19341;SDS011;9807;48.258;12.690;2023-04-03T03:43:09;8.30;;;5.73;;
19341;SDS011;9807;48.258;12.690;2023-04-03T03:45:35;7.83;;;5.70;;
19341;SDS011;9807;48.258;12.690;2023-04-03T03:48:01;9.10;;;5.83;;
19341;SDS011;9807;48.258;12.690;2023-04-03T03:50:27;7.57;;;5.90;;
19341;SDS011;9807;48.258;12.690;2023-04-03T03:52:53;7.63;;;5.80;;
19341;SDS011;9807;48.258;12.690;2023-04-03T03:55:19;8.47;;;5.40;;
19341;SDS011;9807;48.258;12.690;2023-04-03T03:57:45;11.70;;;6.63;;
19341;SDS011;9807;48.258;12.690;2023-04-03T04:00:11;7.67;;;5.93;;
19341;SDS011;9807;48.258;12.690;2023-04-03T04:02:37;9.80;;;6.10;;
19341;SDS011;9807;48.258;12.690;2023-04-03T04:05:02;8.17;;;5.67;;
19341;SDS011;9807;48.258;12.690;2023-04-03T04:07:28;11.57;;;6.20;;
19341;SDS011;9807;48.258;12.690;2023-04-03T04:09:54;8.97;;;6.07;;
19341;SDS011;9807;48.258;12.690;2023-04-03T04:12:20;8.37;;;6.03;;
19341;SDS011;9807;48.258;12.690;2023-04-03T04:14:46;8.50;;;5.50;;
19341;SDS011;9807;48.258;12.690;2023-04-03T04:17:15;7.80;;;5.50;;
19341;SDS011;9807;48.258;12.690;2023-04-03T04:19:41;7.63;;;5.70;;
19341;SDS011;9807;48.258;12.690;2023-04-03T04:22:07;9.37;;;5.50;;
19341;SDS011;9807;48.258;12.690;2023-04-03T04:24:32;7.87;;;5.47;;
19341;SDS011;9807;48.258;12.690;2023-04-03T04:26:58;7.17;;;5.53;;
19341;SDS011;9807;48.258;12.690;2023-04-03T04:29:24;9.73;;;5.23;;
19341;SDS011;9807;48.258;12.690;2023-04-03T04:31:49;7.47;;;5.43;;
19341;SDS011;9807;48.258;12.690;2023-04-03T04:34:18;6.30;;;5.00;;
19341;SDS011;9807;48.258;12.690;2023-04-03T04:36:43;9.30;;;5.70;;
19341;SDS011;9807;48.258;12.690;2023-04-03T04:39:09;11.40;;;6.33;;
19341;SDS011;9807;48.258;12.690;2023-04-03T04:41:35;10.30;;;5.90;;
19341;SDS011;9807;48.258;12.690;2023-04-03T04:44:01;10.47;;;7.20;;
19341;SDS011;9807;48.258;12.690;2023-04-03T04:46:27;10.93;;;6.90;;
19341;SDS011;9807;48.258;12.690;2023-04-03T04:48:53;9.27;;;5.80;;
19341;SDS011;9807;48.258;12.690;2023-04-03T04:51:19;7.90;;;5.53;;
19341;SDS011;9807;48.258;12.690;2023-04-03T04:53:45;11.23;;;7.30;;
19341;SDS011;9807;48.258;12.690;2023-04-03T04:56:10;6.43;;;4.90;;
19341;SDS011;9807;48.258;12.690;2023-04-03T04:58:36;7.03;;;5.10;;
19341;SDS011;9807;48.258;12.690;2023-04-03T05:01:06;6.67;;;5.10;;
19341;SDS011;9807;48.258;12.690;2023-04-03T05:03:40;7.07;;;4.50;;
19341;SDS011;9807;48.258;12.690;2023-04-03T05:06:06;8.87;;;4.67;;
19341;SDS011;9807;48.258;12.690;2023-04-03T05:08:32;6.37;;;5.10;;
19341;SDS011;9807;48.258;12.690;2023-04-03T05:10:57;8.57;;;5.40;;
19341;SDS011;9807;48.258;12.690;2023-04-03T05:13:23;7.10;;;5.03;;
19341;SDS011;9807;48.258;12.690;2023-04-03T05:15:58;7.27;;;5.47;;
19341;SDS011;9807;48.258;12.690;2023-04-03T05:18:24;7.53;;;6.07;;
19341;SDS011;9807;48.258;12.690;2023-04-03T05:20:50;6.73;;;5.67;;
19341;SDS011;9807;48.258;12.690;2023-04-03T05:23:16;8.77;;;6.33;;
19341;SDS011;9807;48.258;12.690;2023-04-03T05:25:42;10.53;;;6.93;;
19341;SDS011;9807;48.258;12.690;2023-04-03T05:28:10;11.37;;;8.17;;
19341;SDS011;9807;48.258;12.690;2023-04-03T05:30:39;26.20;;;12.70;;
19341;SDS011;9807;48.258;12.690;2023-04-03T05:33:07;140.03;;;56.60;;
19341;SDS011;9807;48.258;12.690;2023-04-03T05:35:35;73.30;;;38.13;;
19341;SDS011;9807;48.258;12.690;2023-04-03T05:38:04;17.73;;;10.73;;
19341;SDS011;9807;48.258;12.690;2023-04-03T05:40:30;15.10;;;9.07;;
19341;SDS011;9807;48.258;12.690;2023-04-03T05:42:59;7.80;;;6.03;;
19341;SDS011;9807;48.258;12.690;2023-04-03T05:45:27;10.33;;;7.00;;
19341;SDS011;9807;48.258;12.690;2023-04-03T05:47:53;13.73;;;7.10;;
19341;SDS011;9807;48.258;12.690;2023-04-03T05:50:19;10.40;;;6.47;;
19341;SDS011;9807;48.258;12.690;2023-04-03T05:52:45;11.23;;;6.00;;
19341;SDS011;9807;48.258;12.690;2023-04-03T05:55:13;13.67;;;7.20;;
19341;SDS011;9807;48.258;12.690;2023-04-03T05:57:42;46.80;;;20.83;;
19341;SDS011;9807;48.258;12.690;2023-04-03T06:00:08;15.13;;;6.97;;
19341;SDS011;9807;48.258;12.690;2023-04-03T06:02:37;12.20;;;6.27;;
19341;SDS011;9807;48.258;12.690;2023-04-03T06:05:03;8.67;;;6.40;;
19341;SDS011;9807;48.258;12.690;2023-04-03T06:07:29;12.23;;;6.17;;
19341;SDS011;9807;48.258;12.690;2023-04-03T06:09:56;7.67;;;5.73;;
19341;SDS011;9807;48.258;12.690;2023-04-03T06:12:25;17.43;;;5.50;;
19341;SDS011;9807;48.258;12.690;2023-04-03T06:14:51;9.50;;;5.70;;
19341;SDS011;9807;48.258;12.690;2023-04-03T06:17:17;10.40;;;6.37;;
19341;SDS011;9807;48.258;12.690;2023-04-03T06:19:43;18.17;;;6.97;;
19341;SDS011;9807;48.258;12.690;2023-04-03T06:22:09;7.47;;;5.10;;
19341;SDS011;9807;48.258;12.690;2023-04-03T06:24:36;9.53;;;5.40;;
19341;SDS011;9807;48.258;12.690;2023-04-03T06:27:03;11.67;;;5.73;;
19341;SDS011;9807;48.258;12.690;2023-04-03T06:29:29;5.80;;;4.87;;
19341;SDS011;9807;48.258;12.690;2023-04-03T06:31:58;8.80;;;5.60;;
19341;SDS011;9807;48.258;12.690;2023-04-03T06:34:24;7.80;;;5.17;;
19341;SDS011;9807;48.258;12.690;2023-04-03T06:36:49;9.47;;;5.60;;
19341;SDS011;9807;48.258;12.690;2023-04-03T06:39:16;10.40;;;5.33;;
19341;SDS011;9807;48.258;12.690;2023-04-03T06:41:47;8.33;;;5.30;;
19341;SDS011;9807;48.258;12.690;2023-04-03T06:44:14;8.87;;;5.70;;
19341;SDS011;9807;48.258;12.690;2023-04-03T06:46:41;11.97;;;6.40;;
19341;SDS011;9807;48.258;12.690;2023-04-03T06:49:07;13.57;;;6.17;;
19341;SDS011;9807;48.258;12.690;2023-04-03T06:51:36;10.43;;;5.37;;
19341;SDS011;9807;48.258;12.690;2023-04-03T06:54:03;8.63;;;5.30;;
19341;SDS011;9807;48.258;12.690;2023-04-03T06:56:30;7.43;;;4.90;;
19341;SDS011;9807;48.258;12.690;2023-04-03T06:58:57;8.23;;;5.57;;
19341;SDS011;9807;48.258;12.690;2023-04-03T07:01:23;7.00;;;4.67;;
19341;SDS011;9807;48.258;12.690;2023-04-03T07:03:52;12.83;;;5.67;;
19341;SDS011;9807;48.258;12.690;2023-04-03T07:06:18;9.73;;;5.27;;
19341;SDS011;9807;48.258;12.690;2023-04-03T07:08:44;10.63;;;4.70;;
19341;SDS011;9807;48.258;12.690;2023-04-03T07:11:11;6.27;;;4.40;;
19341;SDS011;9807;48.258;12.690;2023-04-03T07:13:37;7.40;;;4.57;;
19341;SDS011;9807;48.258;12.690;2023-04-03T07:16:07;9.63;;;5.20;;
19341;SDS011;9807;48.258;12.690;2023-04-03T07:18:34;11.40;;;5.20;;
19341;SDS011;9807;48.258;12.690;2023-04-03T07:21:03;11.87;;;5.57;;
19341;SDS011;9807;48.258;12.690;2023-04-03T07:23:29;6.33;;;4.60;;
19341;SDS011;9807;48.258;12.690;2023-04-03T07:25:55;5.40;;;4.20;;
19341;SDS011;9807;48.258;12.690;2023-04-03T07:28:21;6.80;;;4.40;;
19341;SDS011;9807;48.258;12.690;2023-04-03T07:30:54;6.83;;;4.37;;
19341;SDS011;9807;48.258;12.690;2023-04-03T07:33:25;5.43;;;3.63;;
19341;SDS011;9807;48.258;12.690;2023-04-03T07:35:57;5.13;;;4.07;;
19341;SDS011;9807;48.258;12.690;2023-04-03T07:38:23;6.43;;;4.57;;
19341;SDS011;9807;48.258;12.690;2023-04-03T07:40:50;4.83;;;3.67;;
19341;SDS011;9807;48.258;12.690;2023-04-03T07:43:17;7.97;;;4.63;;
19341;SDS011;9807;48.258;12.690;2023-04-03T07:45:45;6.37;;;4.20;;
19341;SDS011;9807;48.258;12.690;2023-04-03T07:48:12;7.87;;;4.73;;
19341;SDS011;9807;48.258;12.690;2023-04-03T07:50:40;7.87;;;4.40;;
19341;SDS011;9807;48.258;12.690;2023-04-03T07:53:05;13.60;;;4.40;;
19341;SDS011;9807;48.258;12.690;2023-04-03T07:55:32;7.50;;;4.33;;
19341;SDS011;9807;48.258;12.690;2023-04-03T07:57:58;36.57;;;6.67;;
19341;SDS011;9807;48.258;12.690;2023-04-03T08:00:24;8.03;;;4.50;;
19341;SDS011;9807;48.258;12.690;2023-04-03T08:02:50;11.07;;;4.60;;
19341;SDS011;9807;48.258;12.690;2023-04-03T08:05:19;10.77;;;4.73;;
19341;SDS011;9807;48.258;12.690;2023-04-03T08:07:46;7.07;;;4.70;;
19341;SDS011;9807;48.258;12.690;2023-04-03T08:10:12;7.83;;;5.00;;
19341;SDS011;9807;48.258;12.690;2023-04-03T08:12:39;6.73;;;4.60;;
19341;SDS011;9807;48.258;12.690;2023-04-03T08:15:05;6.87;;;4.70;;
19341;SDS011;9807;48.258;12.690;2023-04-03T08:17:33;13.77;;;5.10;;
19341;SDS011;9807;48.258;12.690;2023-04-03T08:19:59;10.17;;;5.17;;
19341;SDS011;9807;48.258;12.690;2023-04-03T08:22:26;7.00;;;4.90;;
19341;SDS011;9807;48.258;12.690;2023-04-03T08:24:51;6.43;;;4.70;;
19341;SDS011;9807;48.258;12.690;2023-04-03T08:27:17;10.50;;;5.37;;
19341;SDS011;9807;48.258;12.690;2023-04-03T08:29:43;13.30;;;4.90;;
19341;SDS011;9807;48.258;12.690;2023-04-03T08:32:08;6.33;;;4.80;;
19341;SDS011;9807;48.258;12.690;2023-04-03T08:34:37;10.47;;;5.23;;
19341;SDS011;9807;48.258;12.690;2023-04-03T08:37:04;10.10;;;4.90;;
19341;SDS011;9807;48.258;12.690;2023-04-03T08:39:37;8.40;;;4.67;;
19341;SDS011;9807;48.258;12.690;2023-04-03T08:42:05;6.43;;;4.43;;
19341;SDS011;9807;48.258;12.690;2023-04-03T08:44:41;8.57;;;5.00;;
19341;SDS011;9807;48.258;12.690;2023-04-03T08:50:14;6.63;;;4.60;;
19341;SDS011;9807;48.258;12.690;2023-04-03T08:52:53;14.93;;;5.03;;
19341;SDS011;9807;48.258;12.690;2023-04-03T08:55:27;10.17;;;5.00;;
19341;SDS011;9807;48.258;12.690;2023-04-03T08:58:00;7.60;;;4.70;;
19341;SDS011;9807;48.258;12.690;2023-04-03T09:00:30;7.37;;;4.30;;
19341;SDS011;9807;48.258;12.690;2023-04-03T09:03:29;7.30;;;4.50;;
19341;SDS011;9807;48.258;12.690;2023-04-03T09:06:11;6.90;;;4.93;;
19341;SDS011;9807;48.258;12.690;2023-04-03T09:08:56;8.17;;;5.10;;
19341;SDS011;9807;48.258;12.690;2023-04-03T09:17:26;6.67;;;3.90;;
19341;SDS011;9807;48.258;12.690;2023-04-03T09:23:04;6.10;;;4.10;;
19341;SDS011;9807;48.258;12.690;2023-04-03T09:25:40;6.87;;;3.83;;
19341;SDS011;9807;48.258;12.690;2023-04-03T09:28:06;5.30;;;3.63;;
19341;SDS011;9807;48.258;12.690;2023-04-03T09:30:37;7.53;;;3.43;;
19341;SDS011;9807;48.258;12.690;2023-04-03T09:33:03;11.67;;;6.37;;
19341;SDS011;9807;48.258;12.690;2023-04-03T09:35:31;7.90;;;3.70;;
19341;SDS011;9807;48.258;12.690;2023-04-03T09:38:00;6.97;;;3.57;;
19341;SDS011;9807;48.258;12.690;2023-04-03T09:40:34;5.60;;;3.20;;
19341;SDS011;9807;48.258;12.690;2023-04-03T09:45:42;4.83;;;2.70;;
19341;SDS011;9807;48.258;12.690;2023-04-03T09:50:38;4.47;;;2.87;;
19341;SDS011;9807;48.258;12.690;2023-04-03T09:56:04;6.33;;;2.70;;
19341;SDS011;9807;48.258;12.690;2023-04-03T09:58:50;4.73;;;2.90;;
19341;SDS011;9807;48.258;12.690;2023-04-03T10:01:30;4.60;;;2.90;;
19341;SDS011;9807;48.258;12.690;2023-04-03T10:12:05;4.50;;;2.43;;
19341;SDS011;9807;48.258;12.690;2023-04-03T10:17:18;2.67;;;2.27;;
19341;SDS011;9807;48.258;12.690;2023-04-03T10:25:10;3.93;;;2.57;;
19341;SDS011;9807;48.258;12.690;2023-04-03T10:30:27;3.70;;;2.57;;
19341;SDS011;9807;48.258;12.690;2023-04-03T10:40:47;5.10;;;3.17;;
19341;SDS011;9807;48.258;12.690;2023-04-03T10:43:36;6.87;;;3.20;;
19341;SDS011;9807;48.258;12.690;2023-04-03T10:46:16;7.67;;;4.20;;
19341;SDS011;9807;48.258;12.690;2023-04-03T10:57:32;6.57;;;3.07;;
19341;SDS011;9807;48.258;12.690;2023-04-03T11:00:07;6.33;;;2.93;;
19341;SDS011;9807;48.258;12.690;2023-04-03T11:02:54;3.83;;;2.80;;
19341;SDS011;9807;48.258;12.690;2023-04-03T11:05:31;4.87;;;2.57;;
19341;SDS011;9807;48.258;12.690;2023-04-03T11:08:05;7.13;;;2.83;;
19341;SDS011;9807;48.258;12.690;2023-04-03T11:10:42;7.90;;;3.97;;
19341;SDS011;9807;48.258;12.690;2023-04-03T11:13:45;7.30;;;3.53;;
19341;SDS011;9807;48.258;12.690;2023-04-03T11:16:05;4.73;;;3.00;;
19341;SDS011;9807;48.258;12.690;2023-04-03T11:21:20;4.60;;;2.90;;
19341;SDS011;9807;48.258;12.690;2023-04-03T11:23:52;5.87;;;3.03;;
19341;SDS011;9807;48.258;12.690;2023-04-03T11:26:24;13.10;;;3.20;;
19341;SDS011;9807;48.258;12.690;2023-04-03T11:29:02;5.13;;;3.00;;
19341;SDS011;9807;48.258;12.690;2023-04-03T11:37:13;4.03;;;2.40;;
19341;SDS011;9807;48.258;12.690;2023-04-03T11:39:53;4.33;;;2.57;;
19341;SDS011;9807;48.258;12.690;2023-04-03T11:42:27;7.43;;;2.87;;
19341;SDS011;9807;48.258;12.690;2023-04-03T12:18:58;3.10;;;1.93;;
19341;SDS011;9807;48.258;12.690;2023-04-03T12:26:32;4.57;;;1.80;;
19341;SDS011;9807;48.258;12.690;2023-04-03T12:29:17;3.00;;;1.80;;
19341;SDS011;9807;48.258;12.690;2023-04-03T12:46:03;1.87;;;1.40;;
19341;SDS011;9807;48.258;12.690;2023-04-03T12:48:57;3.40;;;1.90;;
19341;SDS011;9807;48.258;12.690;2023-04-03T12:51:21;3.00;;;1.53;;
19341;SDS011;9807;48.258;12.690;2023-04-03T12:54:53;5.47;;;1.60;;
19341;SDS011;9807;48.258;12.690;2023-04-03T12:57:16;3.20;;;1.90;;
19341;SDS011;9807;48.258;12.690;2023-04-03T12:59:44;7.10;;;2.07;;
19341;SDS011;9807;48.258;12.690;2023-04-03T13:05:13;3.90;;;1.90;;
19341;SDS011;9807;48.258;12.690;2023-04-03T13:07:42;2.93;;;1.80;;
19341;SDS011;9807;48.258;12.690;2023-04-03T13:10:14;6.67;;;2.33;;
19341;SDS011;9807;48.258;12.690;2023-04-03T13:12:45;4.30;;;2.00;;
19341;SDS011;9807;48.258;12.690;2023-04-03T13:15:58;3.73;;;1.90;;
19341;SDS011;9807;48.258;12.690;2023-04-03T13:20:53;4.63;;;1.70;;
19341;SDS011;9807;48.258;12.690;2023-04-03T13:23:32;3.40;;;1.90;;
19341;SDS011;9807;48.258;12.690;2023-04-03T13:26:04;14.97;;;2.20;;
19341;SDS011;9807;48.258;12.690;2023-04-03T13:28:31;6.37;;;2.17;;
19341;SDS011;9807;48.258;12.690;2023-04-03T13:31:07;2.83;;;2.07;;
19341;SDS011;9807;48.258;12.690;2023-04-03T13:33:55;4.37;;;1.57;;
19341;SDS011;9807;48.258;12.690;2023-04-03T13:36:36;3.47;;;1.77;;
19341;SDS011;9807;48.258;12.690;2023-04-03T13:39:06;3.20;;;1.70;;
19341;SDS011;9807;48.258;12.690;2023-04-03T13:41:37;4.23;;;1.80;;
19341;SDS011;9807;48.258;12.690;2023-04-03T13:49:19;5.40;;;1.80;;
19341;SDS011;9807;48.258;12.690;2023-04-03T13:52:22;4.70;;;1.57;;
19341;SDS011;9807;48.258;12.690;2023-04-03T13:54:57;2.63;;;1.60;;
19341;SDS011;9807;48.258;12.690;2023-04-03T13:57:36;4.57;;;1.77;;
19341;SDS011;9807;48.258;12.690;2023-04-03T14:02:58;5.57;;;2.03;;
19341;SDS011;9807;48.258;12.690;2023-04-03T14:05:24;3.07;;;1.57;;
19341;SDS011;9807;48.258;12.690;2023-04-03T14:07:51;5.00;;;1.80;;
19341;SDS011;9807;48.258;12.690;2023-04-03T14:10:21;3.33;;;1.90;;
19341;SDS011;9807;48.258;12.690;2023-04-03T14:12:47;3.70;;;1.70;;
19341;SDS011;9807;48.258;12.690;2023-04-03T14:15:18;4.90;;;2.03;;
19341;SDS011;9807;48.258;12.690;2023-04-03T14:17:49;2.83;;;1.63;;
19341;SDS011;9807;48.258;12.690;2023-04-03T14:20:17;4.53;;;2.10;;
19341;SDS011;9807;48.258;12.690;2023-04-03T14:22:46;2.90;;;1.70;;
19341;SDS011;9807;48.258;12.690;2023-04-03T14:25:16;5.87;;;1.63;;
19341;SDS011;9807;48.258;12.690;2023-04-03T14:27:43;3.63;;;1.60;;
19341;SDS011;9807;48.258;12.690;2023-04-03T14:30:17;2.83;;;1.60;;
19341;SDS011;9807;48.258;12.690;2023-04-03T14:32:46;3.67;;;1.63;;
19341;SDS011;9807;48.258;12.690;2023-04-03T14:35:13;3.27;;;1.70;;
19341;SDS011;9807;48.258;12.690;2023-04-03T14:37:42;4.23;;;2.07;;
19341;SDS011;9807;48.258;12.690;2023-04-03T14:40:11;3.10;;;1.60;;
19341;SDS011;9807;48.258;12.690;2023-04-03T14:42:39;6.17;;;2.03;;
19341;SDS011;9807;48.258;12.690;2023-04-03T14:45:07;4.97;;;2.47;;
19341;SDS011;9807;48.258;12.690;2023-04-03T14:47:39;5.07;;;2.03;;
19341;SDS011;9807;48.258;12.690;2023-04-03T14:50:15;3.33;;;2.17;;
19341;SDS011;9807;48.258;12.690;2023-04-03T14:52:43;7.80;;;2.00;;
19341;SDS011;9807;48.258;12.690;2023-04-03T14:55:11;2.90;;;1.97;;
19341;SDS011;9807;48.258;12.690;2023-04-03T14:57:39;2.90;;;1.93;;
19341;SDS011;9807;48.258;12.690;2023-04-03T15:00:07;3.80;;;2.30;;
19341;SDS011;9807;48.258;12.690;2023-04-03T15:02:37;3.40;;;2.07;;
19341;SDS011;9807;48.258;12.690;2023-04-03T15:05:05;2.67;;;1.90;;
19341;SDS011;9807;48.258;12.690;2023-04-03T15:07:34;3.17;;;1.90;;
19341;SDS011;9807;48.258;12.690;2023-04-03T15:10:05;10.10;;;2.43;;
19341;SDS011;9807;48.258;12.690;2023-04-03T15:12:43;2.57;;;2.20;;
19341;SDS011;9807;48.258;12.690;2023-04-03T15:15:09;3.30;;;2.20;;
19341;SDS011;9807;48.258;12.690;2023-04-03T15:17:35;3.33;;;2.13;;
19341;SDS011;9807;48.258;12.690;2023-04-03T15:20:01;3.10;;;2.20;;
19341;SDS011;9807;48.258;12.690;2023-04-03T15:22:28;5.00;;;2.20;;
19341;SDS011;9807;48.258;12.690;2023-04-03T15:24:53;3.97;;;2.30;;
19341;SDS011;9807;48.258;12.690;2023-04-03T15:27:19;4.30;;;2.70;;
19341;SDS011;9807;48.258;12.690;2023-04-03T15:29:45;5.47;;;2.10;;
19341;SDS011;9807;48.258;12.690;2023-04-03T15:32:11;3.93;;;2.40;;
19341;SDS011;9807;48.258;12.690;2023-04-03T15:34:37;4.03;;;2.30;;
19341;SDS011;9807;48.258;12.690;2023-04-03T15:37:04;4.60;;;2.30;;
19341;SDS011;9807;48.258;12.690;2023-04-03T15:39:30;5.50;;;1.90;;
19341;SDS011;9807;48.258;12.690;2023-04-03T15:41:56;3.33;;;2.17;;
19341;SDS011;9807;48.258;12.690;2023-04-03T15:44:30;4.37;;;2.17;;
19341;SDS011;9807;48.258;12.690;2023-04-03T15:46:58;3.10;;;2.33;;
19341;SDS011;9807;48.258;12.690;2023-04-03T15:49:24;3.13;;;2.30;;
19341;SDS011;9807;48.258;12.690;2023-04-03T15:51:51;4.10;;;2.57;;
19341;SDS011;9807;48.258;12.690;2023-04-03T15:54:17;5.03;;;2.70;;
19341;SDS011;9807;48.258;12.690;2023-04-03T15:56:43;5.80;;;2.50;;
19341;SDS011;9807;48.258;12.690;2023-04-03T15:59:10;6.23;;;2.60;;
19341;SDS011;9807;48.258;12.690;2023-04-03T16:01:36;5.10;;;2.70;;
19341;SDS011;9807;48.258;12.690;2023-04-03T16:04:03;3.63;;;2.50;;
19341;SDS011;9807;48.258;12.690;2023-04-03T16:06:30;5.13;;;2.70;;
19341;SDS011;9807;48.258;12.690;2023-04-03T16:08:56;3.37;;;2.67;;
19341;SDS011;9807;48.258;12.690;2023-04-03T16:11:24;5.37;;;2.80;;
19341;SDS011;9807;48.258;12.690;2023-04-03T16:13:51;3.20;;;2.40;;
19341;SDS011;9807;48.258;12.690;2023-04-03T16:16:16;3.23;;;2.50;;
19341;SDS011;9807;48.258;12.690;2023-04-03T16:18:42;6.37;;;2.53;;
19341;SDS011;9807;48.258;12.690;2023-04-03T16:21:08;3.63;;;2.43;;
19341;SDS011;9807;48.258;12.690;2023-04-03T16:23:37;4.40;;;2.73;;
19341;SDS011;9807;48.258;12.690;2023-04-03T16:26:03;5.00;;;2.63;;
19341;SDS011;9807;48.258;12.690;2023-04-03T16:28:29;4.70;;;2.70;;
19341;SDS011;9807;48.258;12.690;2023-04-03T16:30:54;6.10;;;2.80;;
19341;SDS011;9807;48.258;12.690;2023-04-03T16:33:20;4.03;;;2.67;;
19341;SDS011;9807;48.258;12.690;2023-04-03T16:35:47;8.27;;;3.00;;
19341;SDS011;9807;48.258;12.690;2023-04-03T16:38:13;11.37;;;3.20;;
19341;SDS011;9807;48.258;12.690;2023-04-03T16:40:40;5.43;;;2.67;;
19341;SDS011;9807;48.258;12.690;2023-04-03T16:43:06;4.27;;;2.90;;
19341;SDS011;9807;48.258;12.690;2023-04-03T16:45:32;4.73;;;2.50;;
19341;SDS011;9807;48.258;12.690;2023-04-03T16:47:58;4.37;;;2.70;;
19341;SDS011;9807;48.258;12.690;2023-04-03T16:50:24;5.57;;;2.80;;
19341;SDS011;9807;48.258;12.690;2023-04-03T16:52:54;4.63;;;2.97;;
19341;SDS011;9807;48.258;12.690;2023-04-03T16:55:37;6.13;;;3.20;;
19341;SDS011;9807;48.258;12.690;2023-04-03T16:58:09;5.20;;;3.33;;
19341;SDS011;9807;48.258;12.690;2023-04-03T17:00:46;5.13;;;3.13;;
19341;SDS011;9807;48.258;12.690;2023-04-03T17:03:12;6.57;;;2.83;;
19341;SDS011;9807;48.258;12.690;2023-04-03T17:05:38;8.40;;;3.30;;
19341;SDS011;9807;48.258;12.690;2023-04-03T17:08:04;5.90;;;3.10;;
19341;SDS011;9807;48.258;12.690;2023-04-03T17:10:30;5.10;;;3.20;;